<?xml version="1.0" encoding="UTF-8" standalone="no" ?>
<gpx xmlns="http://www.topografix.com/GPX/1/1" xmlns:xsi="http://www.w3.org/2001/XMLSchema-instance" xsi:schemaLocation="http://www.topografix.com/GPX/1/1 http://www.topografix.com/GPX/1/1/gpx.xsd" version="1.1" creator="VisuGPX - https://www.visugpx.com">
  <metadata>
    <name>Rando Mont Sacon</name>
    <desc><![CDATA[Rando du Mont Sacon (ou Pic de Tourroc).
On a ensuite décollé en parapente depuis le sommet pour redescendre par les air et poser après Sarp ;)]]></desc>
  </metadata>
  <trk>
    <name><![CDATA[30 sept. 2016 13:02:21]]></name>
    <cmt><![CDATA[30 sept. 2016 13:02:21]]></cmt>
    <trkseg>
      <trkpt lat="42.98724" lon="0.56306">
        <ele>607</ele>
        <time>2016-09-30T11:02:22Z</time>
      </trkpt>
      <trkpt lat="42.9872" lon="0.56312">
        <ele>601</ele>
        <time>2016-09-30T11:02:32Z</time>
      </trkpt>
      <trkpt lat="42.98717" lon="0.56317">
        <ele>599</ele>
        <time>2016-09-30T11:02:37Z</time>
      </trkpt>
      <trkpt lat="42.98707" lon="0.56314">
        <ele>593</ele>
        <time>2016-09-30T11:02:49Z</time>
      </trkpt>
      <trkpt lat="42.98684" lon="0.563">
        <ele>587</ele>
        <time>2016-09-30T11:03:07Z</time>
      </trkpt>
      <trkpt lat="42.98675" lon="0.56305">
        <ele>586</ele>
        <time>2016-09-30T11:03:16Z</time>
      </trkpt>
      <trkpt lat="42.9867" lon="0.56308">
        <ele>586</ele>
        <time>2016-09-30T11:03:20Z</time>
      </trkpt>
      <trkpt lat="42.98665" lon="0.5631">
        <ele>586</ele>
        <time>2016-09-30T11:03:25Z</time>
      </trkpt>
      <trkpt lat="42.9866" lon="0.56312">
        <ele>586</ele>
        <time>2016-09-30T11:03:30Z</time>
      </trkpt>
      <trkpt lat="42.98656" lon="0.56313">
        <ele>586</ele>
        <time>2016-09-30T11:03:34Z</time>
      </trkpt>
      <trkpt lat="42.98637" lon="0.56307">
        <ele>585</ele>
        <time>2016-09-30T11:03:49Z</time>
      </trkpt>
      <trkpt lat="42.98628" lon="0.56303">
        <ele>585</ele>
        <time>2016-09-30T11:03:56Z</time>
      </trkpt>
      <trkpt lat="42.98618" lon="0.56302">
        <ele>586</ele>
        <time>2016-09-30T11:04:07Z</time>
      </trkpt>
      <trkpt lat="42.98609" lon="0.563">
        <ele>587</ele>
        <time>2016-09-30T11:04:13Z</time>
      </trkpt>
      <trkpt lat="42.9858" lon="0.56291">
        <ele>585</ele>
        <time>2016-09-30T11:04:37Z</time>
      </trkpt>
      <trkpt lat="42.98558" lon="0.56301">
        <ele>586</ele>
        <time>2016-09-30T11:04:55Z</time>
      </trkpt>
      <trkpt lat="42.9855" lon="0.56298">
        <ele>586</ele>
        <time>2016-09-30T11:04:59Z</time>
      </trkpt>
      <trkpt lat="42.9854" lon="0.56299">
        <ele>587</ele>
        <time>2016-09-30T11:05:06Z</time>
      </trkpt>
      <trkpt lat="42.98523" lon="0.56308">
        <ele>587</ele>
        <time>2016-09-30T11:05:22Z</time>
      </trkpt>
      <trkpt lat="42.98494" lon="0.563">
        <ele>589</ele>
        <time>2016-09-30T11:05:52Z</time>
      </trkpt>
      <trkpt lat="42.98483" lon="0.563">
        <ele>589</ele>
        <time>2016-09-30T11:06:00Z</time>
      </trkpt>
      <trkpt lat="42.98466" lon="0.563">
        <ele>588</ele>
        <time>2016-09-30T11:06:11Z</time>
      </trkpt>
      <trkpt lat="42.98462" lon="0.56299">
        <ele>588</ele>
        <time>2016-09-30T11:06:13Z</time>
      </trkpt>
      <trkpt lat="42.98457" lon="0.563">
        <ele>588</ele>
        <time>2016-09-30T11:06:17Z</time>
      </trkpt>
      <trkpt lat="42.98453" lon="0.56311">
        <ele>587</ele>
        <time>2016-09-30T11:06:25Z</time>
      </trkpt>
      <trkpt lat="42.98448" lon="0.56321">
        <ele>587</ele>
        <time>2016-09-30T11:06:33Z</time>
      </trkpt>
      <trkpt lat="42.98413" lon="0.56344">
        <ele>588</ele>
        <time>2016-09-30T11:07:01Z</time>
      </trkpt>
      <trkpt lat="42.98395" lon="0.56354">
        <ele>593</ele>
        <time>2016-09-30T11:07:21Z</time>
      </trkpt>
      <trkpt lat="42.98359" lon="0.5637">
        <ele>594</ele>
        <time>2016-09-30T11:07:49Z</time>
      </trkpt>
      <trkpt lat="42.98335" lon="0.56391">
        <ele>595</ele>
        <time>2016-09-30T11:08:11Z</time>
      </trkpt>
      <trkpt lat="42.98325" lon="0.56395">
        <ele>596</ele>
        <time>2016-09-30T11:08:20Z</time>
      </trkpt>
      <trkpt lat="42.98315" lon="0.5639">
        <ele>596</ele>
        <time>2016-09-30T11:08:24Z</time>
      </trkpt>
      <trkpt lat="42.98312" lon="0.56404">
        <ele>597</ele>
        <time>2016-09-30T11:08:31Z</time>
      </trkpt>
      <trkpt lat="42.98303" lon="0.56406">
        <ele>598</ele>
        <time>2016-09-30T11:08:46Z</time>
      </trkpt>
      <trkpt lat="42.98288" lon="0.56422">
        <ele>599</ele>
        <time>2016-09-30T11:09:03Z</time>
      </trkpt>
      <trkpt lat="42.98277" lon="0.56421">
        <ele>600</ele>
        <time>2016-09-30T11:09:09Z</time>
      </trkpt>
      <trkpt lat="42.9825" lon="0.56409">
        <ele>600</ele>
        <time>2016-09-30T11:09:32Z</time>
      </trkpt>
      <trkpt lat="42.98255" lon="0.56397">
        <ele>601</ele>
        <time>2016-09-30T11:09:47Z</time>
      </trkpt>
      <trkpt lat="42.98249" lon="0.56386">
        <ele>601</ele>
        <time>2016-09-30T11:09:55Z</time>
      </trkpt>
      <trkpt lat="42.98252" lon="0.56374">
        <ele>601</ele>
        <time>2016-09-30T11:10:05Z</time>
      </trkpt>
      <trkpt lat="42.98264" lon="0.56339">
        <ele>601</ele>
        <time>2016-09-30T11:10:29Z</time>
      </trkpt>
      <trkpt lat="42.98267" lon="0.56299">
        <ele>598</ele>
        <time>2016-09-30T11:10:57Z</time>
      </trkpt>
      <trkpt lat="42.98257" lon="0.56277">
        <ele>595</ele>
        <time>2016-09-30T11:11:13Z</time>
      </trkpt>
      <trkpt lat="42.98249" lon="0.56271">
        <ele>595</ele>
        <time>2016-09-30T11:11:21Z</time>
      </trkpt>
      <trkpt lat="42.98241" lon="0.56263">
        <ele>596</ele>
        <time>2016-09-30T11:11:27Z</time>
      </trkpt>
      <trkpt lat="42.98244" lon="0.56251">
        <ele>596</ele>
        <time>2016-09-30T11:11:37Z</time>
      </trkpt>
      <trkpt lat="42.98251" lon="0.56227">
        <ele>597</ele>
        <time>2016-09-30T11:11:51Z</time>
      </trkpt>
      <trkpt lat="42.98243" lon="0.56218">
        <ele>598</ele>
        <time>2016-09-30T11:11:58Z</time>
      </trkpt>
      <trkpt lat="42.98237" lon="0.56208">
        <ele>600</ele>
        <time>2016-09-30T11:12:05Z</time>
      </trkpt>
      <trkpt lat="42.98242" lon="0.56198">
        <ele>603</ele>
        <time>2016-09-30T11:12:15Z</time>
      </trkpt>
      <trkpt lat="42.98259" lon="0.56165">
        <ele>607</ele>
        <time>2016-09-30T11:12:40Z</time>
      </trkpt>
      <trkpt lat="42.9826" lon="0.56153">
        <ele>608</ele>
        <time>2016-09-30T11:12:48Z</time>
      </trkpt>
      <trkpt lat="42.9827" lon="0.5613">
        <ele>611</ele>
        <time>2016-09-30T11:13:06Z</time>
      </trkpt>
      <trkpt lat="42.98269" lon="0.56118">
        <ele>611</ele>
        <time>2016-09-30T11:13:13Z</time>
      </trkpt>
      <trkpt lat="42.98275" lon="0.56106">
        <ele>612</ele>
        <time>2016-09-30T11:13:20Z</time>
      </trkpt>
      <trkpt lat="42.98288" lon="0.56089">
        <ele>613</ele>
        <time>2016-09-30T11:13:37Z</time>
      </trkpt>
      <trkpt lat="42.98288" lon="0.56075">
        <ele>615</ele>
        <time>2016-09-30T11:13:46Z</time>
      </trkpt>
      <trkpt lat="42.98283" lon="0.56036">
        <ele>619</ele>
        <time>2016-09-30T11:14:16Z</time>
      </trkpt>
      <trkpt lat="42.98299" lon="0.55987">
        <ele>623</ele>
        <time>2016-09-30T11:14:48Z</time>
      </trkpt>
      <trkpt lat="42.98304" lon="0.55976">
        <ele>625</ele>
        <time>2016-09-30T11:14:58Z</time>
      </trkpt>
      <trkpt lat="42.98314" lon="0.55956">
        <ele>626</ele>
        <time>2016-09-30T11:15:17Z</time>
      </trkpt>
      <trkpt lat="42.98312" lon="0.5593">
        <ele>627</ele>
        <time>2016-09-30T11:15:35Z</time>
      </trkpt>
      <trkpt lat="42.9832" lon="0.55907">
        <ele>630</ele>
        <time>2016-09-30T11:16:01Z</time>
      </trkpt>
      <trkpt lat="42.98315" lon="0.55901">
        <ele>631</ele>
        <time>2016-09-30T11:16:20Z</time>
      </trkpt>
      <trkpt lat="42.98308" lon="0.55906">
        <ele>640</ele>
        <time>2016-09-30T11:17:03Z</time>
      </trkpt>
      <trkpt lat="42.9828" lon="0.55938">
        <ele>661</ele>
        <time>2016-09-30T11:17:40Z</time>
      </trkpt>
      <trkpt lat="42.9825" lon="0.5597">
        <ele>668</ele>
        <time>2016-09-30T11:18:12Z</time>
      </trkpt>
      <trkpt lat="42.9823" lon="0.56012">
        <ele>674</ele>
        <time>2016-09-30T11:18:54Z</time>
      </trkpt>
      <trkpt lat="42.98223" lon="0.56023">
        <ele>675</ele>
        <time>2016-09-30T11:19:08Z</time>
      </trkpt>
      <trkpt lat="42.98214" lon="0.56027">
        <ele>675</ele>
        <time>2016-09-30T11:19:20Z</time>
      </trkpt>
      <trkpt lat="42.98206" lon="0.5605">
        <ele>677</ele>
        <time>2016-09-30T11:19:47Z</time>
      </trkpt>
      <trkpt lat="42.98175" lon="0.5608">
        <ele>681</ele>
        <time>2016-09-30T11:20:25Z</time>
      </trkpt>
      <trkpt lat="42.98152" lon="0.56102">
        <ele>685</ele>
        <time>2016-09-30T11:20:58Z</time>
      </trkpt>
      <trkpt lat="42.98142" lon="0.56117">
        <ele>687</ele>
        <time>2016-09-30T11:21:21Z</time>
      </trkpt>
      <trkpt lat="42.98123" lon="0.56122">
        <ele>690</ele>
        <time>2016-09-30T11:21:41Z</time>
      </trkpt>
      <trkpt lat="42.98108" lon="0.56135">
        <ele>696</ele>
        <time>2016-09-30T11:22:16Z</time>
      </trkpt>
      <trkpt lat="42.98099" lon="0.56137">
        <ele>698</ele>
        <time>2016-09-30T11:22:24Z</time>
      </trkpt>
      <trkpt lat="42.98093" lon="0.56146">
        <ele>701</ele>
        <time>2016-09-30T11:22:40Z</time>
      </trkpt>
      <trkpt lat="42.98097" lon="0.56153">
        <ele>703</ele>
        <time>2016-09-30T11:23:02Z</time>
      </trkpt>
      <trkpt lat="42.9809" lon="0.56162">
        <ele>706</ele>
        <time>2016-09-30T11:23:43Z</time>
      </trkpt>
      <trkpt lat="42.98072" lon="0.56167">
        <ele>712</ele>
        <time>2016-09-30T11:24:01Z</time>
      </trkpt>
      <trkpt lat="42.98064" lon="0.5618">
        <ele>718</ele>
        <time>2016-09-30T11:24:23Z</time>
      </trkpt>
      <trkpt lat="42.98055" lon="0.56186">
        <ele>721</ele>
        <time>2016-09-30T11:24:34Z</time>
      </trkpt>
      <trkpt lat="42.98048" lon="0.56196">
        <ele>724</ele>
        <time>2016-09-30T11:24:47Z</time>
      </trkpt>
      <trkpt lat="42.98039" lon="0.56198">
        <ele>726</ele>
        <time>2016-09-30T11:24:53Z</time>
      </trkpt>
      <trkpt lat="42.9803" lon="0.56203">
        <ele>729</ele>
        <time>2016-09-30T11:25:02Z</time>
      </trkpt>
      <trkpt lat="42.98025" lon="0.56201">
        <ele>735</ele>
        <time>2016-09-30T11:25:42Z</time>
      </trkpt>
      <trkpt lat="42.98025" lon="0.56175">
        <ele>746</ele>
        <time>2016-09-30T11:26:14Z</time>
      </trkpt>
      <trkpt lat="42.98027" lon="0.56163">
        <ele>749</ele>
        <time>2016-09-30T11:26:24Z</time>
      </trkpt>
      <trkpt lat="42.98023" lon="0.5612">
        <ele>760</ele>
        <time>2016-09-30T11:27:08Z</time>
      </trkpt>
      <trkpt lat="42.9802" lon="0.56108">
        <ele>761</ele>
        <time>2016-09-30T11:27:22Z</time>
      </trkpt>
      <trkpt lat="42.98022" lon="0.56083">
        <ele>765</ele>
        <time>2016-09-30T11:27:55Z</time>
      </trkpt>
      <trkpt lat="42.98023" lon="0.5607">
        <ele>768</ele>
        <time>2016-09-30T11:28:06Z</time>
      </trkpt>
      <trkpt lat="42.98025" lon="0.56058">
        <ele>769</ele>
        <time>2016-09-30T11:28:16Z</time>
      </trkpt>
      <trkpt lat="42.98035" lon="0.56021">
        <ele>775</ele>
        <time>2016-09-30T11:28:52Z</time>
      </trkpt>
      <trkpt lat="42.98036" lon="0.56009">
        <ele>776</ele>
        <time>2016-09-30T11:29:03Z</time>
      </trkpt>
      <trkpt lat="42.98055" lon="0.55979">
        <ele>780</ele>
        <time>2016-09-30T11:29:30Z</time>
      </trkpt>
      <trkpt lat="42.98073" lon="0.55931">
        <ele>783</ele>
        <time>2016-09-30T11:30:04Z</time>
      </trkpt>
      <trkpt lat="42.98081" lon="0.55891">
        <ele>789</ele>
        <time>2016-09-30T11:30:47Z</time>
      </trkpt>
      <trkpt lat="42.98086" lon="0.55879">
        <ele>790</ele>
        <time>2016-09-30T11:30:56Z</time>
      </trkpt>
      <trkpt lat="42.98089" lon="0.55867">
        <ele>793</ele>
        <time>2016-09-30T11:31:12Z</time>
      </trkpt>
      <trkpt lat="42.98094" lon="0.55857">
        <ele>794</ele>
        <time>2016-09-30T11:31:22Z</time>
      </trkpt>
      <trkpt lat="42.98095" lon="0.55844">
        <ele>795</ele>
        <time>2016-09-30T11:31:35Z</time>
      </trkpt>
      <trkpt lat="42.98096" lon="0.55832">
        <ele>794</ele>
        <time>2016-09-30T11:31:45Z</time>
      </trkpt>
      <trkpt lat="42.98098" lon="0.55818">
        <ele>795</ele>
        <time>2016-09-30T11:31:51Z</time>
      </trkpt>
      <trkpt lat="42.98109" lon="0.55781">
        <ele>800</ele>
        <time>2016-09-30T11:32:26Z</time>
      </trkpt>
      <trkpt lat="42.98121" lon="0.55746">
        <ele>807</ele>
        <time>2016-09-30T11:32:58Z</time>
      </trkpt>
      <trkpt lat="42.98124" lon="0.55707">
        <ele>812</ele>
        <time>2016-09-30T11:33:33Z</time>
      </trkpt>
      <trkpt lat="42.98134" lon="0.55667">
        <ele>821</ele>
        <time>2016-09-30T11:34:12Z</time>
      </trkpt>
      <trkpt lat="42.98132" lon="0.55654">
        <ele>821</ele>
        <time>2016-09-30T11:34:23Z</time>
      </trkpt>
      <trkpt lat="42.98138" lon="0.55643">
        <ele>822</ele>
        <time>2016-09-30T11:34:38Z</time>
      </trkpt>
      <trkpt lat="42.9815" lon="0.55628">
        <ele>832</ele>
        <time>2016-09-30T11:35:21Z</time>
      </trkpt>
      <trkpt lat="42.98152" lon="0.55615">
        <ele>833</ele>
        <time>2016-09-30T11:35:35Z</time>
      </trkpt>
      <trkpt lat="42.98157" lon="0.55591">
        <ele>834</ele>
        <time>2016-09-30T11:35:57Z</time>
      </trkpt>
      <trkpt lat="42.98158" lon="0.55579">
        <ele>837</ele>
        <time>2016-09-30T11:36:11Z</time>
      </trkpt>
      <trkpt lat="42.98172" lon="0.55547">
        <ele>846</ele>
        <time>2016-09-30T11:36:52Z</time>
      </trkpt>
      <trkpt lat="42.98181" lon="0.5551">
        <ele>851</ele>
        <time>2016-09-30T11:37:26Z</time>
      </trkpt>
      <trkpt lat="42.98186" lon="0.55486">
        <ele>854</ele>
        <time>2016-09-30T11:37:47Z</time>
      </trkpt>
      <trkpt lat="42.98198" lon="0.55465">
        <ele>859</ele>
        <time>2016-09-30T11:38:08Z</time>
      </trkpt>
      <trkpt lat="42.982" lon="0.55453">
        <ele>862</ele>
        <time>2016-09-30T11:38:18Z</time>
      </trkpt>
      <trkpt lat="42.98205" lon="0.55449">
        <ele>864</ele>
        <time>2016-09-30T11:38:32Z</time>
      </trkpt>
      <trkpt lat="42.98213" lon="0.55445">
        <ele>866</ele>
        <time>2016-09-30T11:38:47Z</time>
      </trkpt>
      <trkpt lat="42.98218" lon="0.55433">
        <ele>872</ele>
        <time>2016-09-30T11:39:07Z</time>
      </trkpt>
      <trkpt lat="42.98232" lon="0.55401">
        <ele>878</ele>
        <time>2016-09-30T11:39:45Z</time>
      </trkpt>
      <trkpt lat="42.98246" lon="0.55383">
        <ele>882</ele>
        <time>2016-09-30T11:40:10Z</time>
      </trkpt>
      <trkpt lat="42.98248" lon="0.55373">
        <ele>886</ele>
        <time>2016-09-30T11:40:37Z</time>
      </trkpt>
      <trkpt lat="42.98252" lon="0.55369">
        <ele>886</ele>
        <time>2016-09-30T11:42:30Z</time>
      </trkpt>
      <trkpt lat="42.98262" lon="0.55338">
        <ele>895</ele>
        <time>2016-09-30T11:43:16Z</time>
      </trkpt>
      <trkpt lat="42.98267" lon="0.55329">
        <ele>900</ele>
        <time>2016-09-30T11:43:36Z</time>
      </trkpt>
      <trkpt lat="42.98271" lon="0.55318">
        <ele>900</ele>
        <time>2016-09-30T11:43:48Z</time>
      </trkpt>
      <trkpt lat="42.98278" lon="0.55304">
        <ele>902</ele>
        <time>2016-09-30T11:44:17Z</time>
      </trkpt>
      <trkpt lat="42.98275" lon="0.55292">
        <ele>903</ele>
        <time>2016-09-30T11:44:33Z</time>
      </trkpt>
      <trkpt lat="42.98283" lon="0.55285">
        <ele>906</ele>
        <time>2016-09-30T11:44:41Z</time>
      </trkpt>
      <trkpt lat="42.98295" lon="0.55266">
        <ele>910</ele>
        <time>2016-09-30T11:45:03Z</time>
      </trkpt>
      <trkpt lat="42.98299" lon="0.55253">
        <ele>911</ele>
        <time>2016-09-30T11:45:17Z</time>
      </trkpt>
      <trkpt lat="42.98303" lon="0.55242">
        <ele>912</ele>
        <time>2016-09-30T11:45:33Z</time>
      </trkpt>
      <trkpt lat="42.98307" lon="0.55231">
        <ele>913</ele>
        <time>2016-09-30T11:45:42Z</time>
      </trkpt>
      <trkpt lat="42.98313" lon="0.55221">
        <ele>916</ele>
        <time>2016-09-30T11:45:55Z</time>
      </trkpt>
      <trkpt lat="42.98338" lon="0.55201">
        <ele>922</ele>
        <time>2016-09-30T11:46:28Z</time>
      </trkpt>
      <trkpt lat="42.9836" lon="0.55177">
        <ele>926</ele>
        <time>2016-09-30T11:47:07Z</time>
      </trkpt>
      <trkpt lat="42.98382" lon="0.55154">
        <ele>934</ele>
        <time>2016-09-30T11:47:44Z</time>
      </trkpt>
      <trkpt lat="42.98392" lon="0.55131">
        <ele>937</ele>
        <time>2016-09-30T11:48:03Z</time>
      </trkpt>
      <trkpt lat="42.98401" lon="0.55125">
        <ele>939</ele>
        <time>2016-09-30T11:48:13Z</time>
      </trkpt>
      <trkpt lat="42.98413" lon="0.55086">
        <ele>948</ele>
        <time>2016-09-30T11:48:59Z</time>
      </trkpt>
      <trkpt lat="42.98422" lon="0.5505">
        <ele>954</ele>
        <time>2016-09-30T11:49:37Z</time>
      </trkpt>
      <trkpt lat="42.98434" lon="0.55025">
        <ele>964</ele>
        <time>2016-09-30T11:50:27Z</time>
      </trkpt>
      <trkpt lat="42.98445" lon="0.55015">
        <ele>971</ele>
        <time>2016-09-30T11:51:28Z</time>
      </trkpt>
      <trkpt lat="42.9845" lon="0.55003">
        <ele>976</ele>
        <time>2016-09-30T11:52:11Z</time>
      </trkpt>
      <trkpt lat="42.9846" lon="0.54982">
        <ele>976</ele>
        <time>2016-09-30T11:52:38Z</time>
      </trkpt>
      <trkpt lat="42.98462" lon="0.54975">
        <ele>977</ele>
        <time>2016-09-30T11:52:52Z</time>
      </trkpt>
      <trkpt lat="42.98468" lon="0.54951">
        <ele>977</ele>
        <time>2016-09-30T11:53:15Z</time>
      </trkpt>
      <trkpt lat="42.98485" lon="0.54937">
        <ele>985</ele>
        <time>2016-09-30T11:53:52Z</time>
      </trkpt>
      <trkpt lat="42.98504" lon="0.54902">
        <ele>990</ele>
        <time>2016-09-30T11:54:33Z</time>
      </trkpt>
      <trkpt lat="42.98505" lon="0.54889">
        <ele>991</ele>
        <time>2016-09-30T11:54:44Z</time>
      </trkpt>
      <trkpt lat="42.98495" lon="0.54887">
        <ele>991</ele>
        <time>2016-09-30T11:54:57Z</time>
      </trkpt>
      <trkpt lat="42.98477" lon="0.54882">
        <ele>993</ele>
        <time>2016-09-30T11:55:19Z</time>
      </trkpt>
      <trkpt lat="42.98468" lon="0.54884">
        <ele>997</ele>
        <time>2016-09-30T11:55:32Z</time>
      </trkpt>
      <trkpt lat="42.98458" lon="0.54884">
        <ele>998</ele>
        <time>2016-09-30T11:55:42Z</time>
      </trkpt>
      <trkpt lat="42.98453" lon="0.54887">
        <ele>1002</ele>
        <time>2016-09-30T11:55:56Z</time>
      </trkpt>
      <trkpt lat="42.98444" lon="0.54885">
        <ele>1003</ele>
        <time>2016-09-30T11:56:03Z</time>
      </trkpt>
      <trkpt lat="42.98398" lon="0.54873">
        <ele>1012</ele>
        <time>2016-09-30T11:56:46Z</time>
      </trkpt>
      <trkpt lat="42.98361" lon="0.54878">
        <ele>1018</ele>
        <time>2016-09-30T11:57:20Z</time>
      </trkpt>
      <trkpt lat="42.98336" lon="0.549">
        <ele>1025</ele>
        <time>2016-09-30T11:57:59Z</time>
      </trkpt>
      <trkpt lat="42.98328" lon="0.54907">
        <ele>1028</ele>
        <time>2016-09-30T11:58:16Z</time>
      </trkpt>
      <trkpt lat="42.98321" lon="0.54918">
        <ele>1029</ele>
        <time>2016-09-30T11:58:27Z</time>
      </trkpt>
      <trkpt lat="42.98317" lon="0.54928">
        <ele>1032</ele>
        <time>2016-09-30T11:58:39Z</time>
      </trkpt>
      <trkpt lat="42.98309" lon="0.54934">
        <ele>1033</ele>
        <time>2016-09-30T11:58:48Z</time>
      </trkpt>
      <trkpt lat="42.983" lon="0.54937">
        <ele>1035</ele>
        <time>2016-09-30T11:58:59Z</time>
      </trkpt>
      <trkpt lat="42.98287" lon="0.54956">
        <ele>1036</ele>
        <time>2016-09-30T11:59:27Z</time>
      </trkpt>
      <trkpt lat="42.98252" lon="0.54962">
        <ele>1038</ele>
        <time>2016-09-30T12:00:01Z</time>
      </trkpt>
      <trkpt lat="42.98259" lon="0.54966">
        <ele>1043</ele>
        <time>2016-09-30T12:00:56Z</time>
      </trkpt>
      <trkpt lat="42.98264" lon="0.54954">
        <ele>1045</ele>
        <time>2016-09-30T12:01:09Z</time>
      </trkpt>
      <trkpt lat="42.98274" lon="0.54924">
        <ele>1054</ele>
        <time>2016-09-30T12:01:47Z</time>
      </trkpt>
      <trkpt lat="42.98279" lon="0.54914">
        <ele>1058</ele>
        <time>2016-09-30T12:02:03Z</time>
      </trkpt>
      <trkpt lat="42.98278" lon="0.54901">
        <ele>1059</ele>
        <time>2016-09-30T12:02:14Z</time>
      </trkpt>
      <trkpt lat="42.98278" lon="0.54888">
        <ele>1060</ele>
        <time>2016-09-30T12:02:24Z</time>
      </trkpt>
      <trkpt lat="42.9828" lon="0.54876">
        <ele>1061</ele>
        <time>2016-09-30T12:02:35Z</time>
      </trkpt>
      <trkpt lat="42.98282" lon="0.54864">
        <ele>1060</ele>
        <time>2016-09-30T12:02:45Z</time>
      </trkpt>
      <trkpt lat="42.98291" lon="0.54842">
        <ele>1065</ele>
        <time>2016-09-30T12:03:16Z</time>
      </trkpt>
      <trkpt lat="42.98298" lon="0.54805">
        <ele>1069</ele>
        <time>2016-09-30T12:03:46Z</time>
      </trkpt>
      <trkpt lat="42.98291" lon="0.54799">
        <ele>1071</ele>
        <time>2016-09-30T12:04:03Z</time>
      </trkpt>
      <trkpt lat="42.98284" lon="0.54805">
        <ele>1072</ele>
        <time>2016-09-30T12:04:13Z</time>
      </trkpt>
      <trkpt lat="42.98258" lon="0.54829">
        <ele>1076</ele>
        <time>2016-09-30T12:04:48Z</time>
      </trkpt>
      <trkpt lat="42.98255" lon="0.54833">
        <ele>1076</ele>
        <time>2016-09-30T12:04:57Z</time>
      </trkpt>
      <trkpt lat="42.98252" lon="0.54837">
        <ele>1076</ele>
        <time>2016-09-30T12:05:07Z</time>
      </trkpt>
      <trkpt lat="42.9825" lon="0.54835">
        <ele>1069</ele>
        <time>2016-09-30T12:06:16Z</time>
      </trkpt>
      <trkpt lat="42.9825" lon="0.54831">
        <ele>1067</ele>
        <time>2016-09-30T12:06:36Z</time>
      </trkpt>
      <trkpt lat="42.98261" lon="0.54823">
        <ele>1067</ele>
        <time>2016-09-30T12:06:55Z</time>
      </trkpt>
      <trkpt lat="42.98267" lon="0.54821">
        <ele>1068</ele>
        <time>2016-09-30T12:07:00Z</time>
      </trkpt>
      <trkpt lat="42.98278" lon="0.54807">
        <ele>1073</ele>
        <time>2016-09-30T12:07:13Z</time>
      </trkpt>
      <trkpt lat="42.98281" lon="0.54796">
        <ele>1079</ele>
        <time>2016-09-30T12:07:24Z</time>
      </trkpt>
      <trkpt lat="42.98283" lon="0.54771">
        <ele>1084</ele>
        <time>2016-09-30T12:07:46Z</time>
      </trkpt>
      <trkpt lat="42.98287" lon="0.54759">
        <ele>1085</ele>
        <time>2016-09-30T12:07:58Z</time>
      </trkpt>
      <trkpt lat="42.98302" lon="0.54737">
        <ele>1088</ele>
        <time>2016-09-30T12:08:34Z</time>
      </trkpt>
      <trkpt lat="42.98309" lon="0.54714">
        <ele>1092</ele>
        <time>2016-09-30T12:08:59Z</time>
      </trkpt>
      <trkpt lat="42.98317" lon="0.54708">
        <ele>1094</ele>
        <time>2016-09-30T12:09:08Z</time>
      </trkpt>
      <trkpt lat="42.98324" lon="0.54685">
        <ele>1099</ele>
        <time>2016-09-30T12:09:34Z</time>
      </trkpt>
      <trkpt lat="42.98331" lon="0.54677">
        <ele>1100</ele>
        <time>2016-09-30T12:09:46Z</time>
      </trkpt>
      <trkpt lat="42.98335" lon="0.54666">
        <ele>1102</ele>
        <time>2016-09-30T12:09:59Z</time>
      </trkpt>
      <trkpt lat="42.98356" lon="0.54641">
        <ele>1106</ele>
        <time>2016-09-30T12:10:34Z</time>
      </trkpt>
      <trkpt lat="42.98371" lon="0.54622">
        <ele>1109</ele>
        <time>2016-09-30T12:11:04Z</time>
      </trkpt>
      <trkpt lat="42.98378" lon="0.54613">
        <ele>1114</ele>
        <time>2016-09-30T12:11:19Z</time>
      </trkpt>
      <trkpt lat="42.98387" lon="0.54609">
        <ele>1115</ele>
        <time>2016-09-30T12:11:31Z</time>
      </trkpt>
      <trkpt lat="42.98391" lon="0.54598">
        <ele>1119</ele>
        <time>2016-09-30T12:11:46Z</time>
      </trkpt>
      <trkpt lat="42.98394" lon="0.54586">
        <ele>1120</ele>
        <time>2016-09-30T12:11:58Z</time>
      </trkpt>
      <trkpt lat="42.98414" lon="0.54558">
        <ele>1128</ele>
        <time>2016-09-30T12:12:39Z</time>
      </trkpt>
      <trkpt lat="42.98423" lon="0.54532">
        <ele>1131</ele>
        <time>2016-09-30T12:13:07Z</time>
      </trkpt>
      <trkpt lat="42.98438" lon="0.54515">
        <ele>1132</ele>
        <time>2016-09-30T12:13:23Z</time>
      </trkpt>
      <trkpt lat="42.98437" lon="0.54502">
        <ele>1133</ele>
        <time>2016-09-30T12:13:35Z</time>
      </trkpt>
      <trkpt lat="42.98445" lon="0.54495">
        <ele>1134</ele>
        <time>2016-09-30T12:13:55Z</time>
      </trkpt>
      <trkpt lat="42.98449" lon="0.5449">
        <ele>1135</ele>
        <time>2016-09-30T12:14:09Z</time>
      </trkpt>
      <trkpt lat="42.9845" lon="0.54482">
        <ele>1138</ele>
        <time>2016-09-30T12:14:23Z</time>
      </trkpt>
      <trkpt lat="42.98466" lon="0.54465">
        <ele>1145</ele>
        <time>2016-09-30T12:15:06Z</time>
      </trkpt>
      <trkpt lat="42.98474" lon="0.54461">
        <ele>1148</ele>
        <time>2016-09-30T12:15:25Z</time>
      </trkpt>
      <trkpt lat="42.98482" lon="0.54469">
        <ele>1148</ele>
        <time>2016-09-30T12:15:33Z</time>
      </trkpt>
      <trkpt lat="42.98491" lon="0.54471">
        <ele>1153</ele>
        <time>2016-09-30T12:15:47Z</time>
      </trkpt>
      <trkpt lat="42.98499" lon="0.54463">
        <ele>1156</ele>
        <time>2016-09-30T12:16:01Z</time>
      </trkpt>
      <trkpt lat="42.98505" lon="0.54454">
        <ele>1161</ele>
        <time>2016-09-30T12:16:15Z</time>
      </trkpt>
      <trkpt lat="42.98514" lon="0.54459">
        <ele>1164</ele>
        <time>2016-09-30T12:16:36Z</time>
      </trkpt>
      <trkpt lat="42.98526" lon="0.5446">
        <ele>1168</ele>
        <time>2016-09-30T12:16:55Z</time>
      </trkpt>
      <trkpt lat="42.98545" lon="0.54452">
        <ele>1174</ele>
        <time>2016-09-30T12:17:18Z</time>
      </trkpt>
      <trkpt lat="42.98558" lon="0.54434">
        <ele>1177</ele>
        <time>2016-09-30T12:17:43Z</time>
      </trkpt>
      <trkpt lat="42.98567" lon="0.5443">
        <ele>1179</ele>
        <time>2016-09-30T12:17:58Z</time>
      </trkpt>
      <trkpt lat="42.98572" lon="0.5442">
        <ele>1180</ele>
        <time>2016-09-30T12:18:12Z</time>
      </trkpt>
      <trkpt lat="42.98575" lon="0.54411">
        <ele>1179</ele>
        <time>2016-09-30T12:18:43Z</time>
      </trkpt>
      <trkpt lat="42.98581" lon="0.544">
        <ele>1178</ele>
        <time>2016-09-30T12:19:02Z</time>
      </trkpt>
      <trkpt lat="42.98587" lon="0.5439">
        <ele>1179</ele>
        <time>2016-09-30T12:19:10Z</time>
      </trkpt>
      <trkpt lat="42.986" lon="0.54362">
        <ele>1187</ele>
        <time>2016-09-30T12:19:51Z</time>
      </trkpt>
      <trkpt lat="42.98599" lon="0.54355">
        <ele>1189</ele>
        <time>2016-09-30T12:20:03Z</time>
      </trkpt>
      <trkpt lat="42.98603" lon="0.54341">
        <ele>1193</ele>
        <time>2016-09-30T12:20:30Z</time>
      </trkpt>
      <trkpt lat="42.98602" lon="0.54314">
        <ele>1199</ele>
        <time>2016-09-30T12:20:51Z</time>
      </trkpt>
      <trkpt lat="42.98611" lon="0.54312">
        <ele>1200</ele>
        <time>2016-09-30T12:21:04Z</time>
      </trkpt>
      <trkpt lat="42.98606" lon="0.54302">
        <ele>1200</ele>
        <time>2016-09-30T12:21:18Z</time>
      </trkpt>
      <trkpt lat="42.98601" lon="0.54288">
        <ele>1201</ele>
        <time>2016-09-30T12:21:35Z</time>
      </trkpt>
      <trkpt lat="42.98604" lon="0.54264">
        <ele>1204</ele>
        <time>2016-09-30T12:22:01Z</time>
      </trkpt>
      <trkpt lat="42.986" lon="0.54252">
        <ele>1206</ele>
        <time>2016-09-30T12:22:18Z</time>
      </trkpt>
      <trkpt lat="42.98588" lon="0.54252">
        <ele>1207</ele>
        <time>2016-09-30T12:22:22Z</time>
      </trkpt>
      <trkpt lat="42.9858" lon="0.54247">
        <ele>1216</ele>
        <time>2016-09-30T12:23:02Z</time>
      </trkpt>
      <trkpt lat="42.98582" lon="0.54247">
        <ele>1220</ele>
        <time>2016-09-30T12:23:29Z</time>
      </trkpt>
      <trkpt lat="42.98572" lon="0.54253">
        <ele>1220</ele>
        <time>2016-09-30T12:23:39Z</time>
      </trkpt>
      <trkpt lat="42.98572" lon="0.54252">
        <ele>1224</ele>
        <time>2016-09-30T12:25:31Z</time>
      </trkpt>
      <trkpt lat="42.98572" lon="0.54245">
        <ele>1224</ele>
        <time>2016-09-30T12:25:38Z</time>
      </trkpt>
      <trkpt lat="42.98579" lon="0.54214">
        <ele>1236</ele>
        <time>2016-09-30T12:26:11Z</time>
      </trkpt>
      <trkpt lat="42.98581" lon="0.54209">
        <ele>1237</ele>
        <time>2016-09-30T12:26:21Z</time>
      </trkpt>
      <trkpt lat="42.9858" lon="0.54202">
        <ele>1239</ele>
        <time>2016-09-30T12:26:31Z</time>
      </trkpt>
      <trkpt lat="42.98583" lon="0.54189">
        <ele>1242</ele>
        <time>2016-09-30T12:26:50Z</time>
      </trkpt>
      <trkpt lat="42.98586" lon="0.54156">
        <ele>1249</ele>
        <time>2016-09-30T12:27:24Z</time>
      </trkpt>
      <trkpt lat="42.98588" lon="0.54143">
        <ele>1250</ele>
        <time>2016-09-30T12:27:37Z</time>
      </trkpt>
      <trkpt lat="42.98587" lon="0.54137">
        <ele>1253</ele>
        <time>2016-09-30T12:27:44Z</time>
      </trkpt>
      <trkpt lat="42.9859" lon="0.54131">
        <ele>1254</ele>
        <time>2016-09-30T12:27:51Z</time>
      </trkpt>
      <trkpt lat="42.98602" lon="0.54104">
        <ele>1264</ele>
        <time>2016-09-30T12:28:24Z</time>
      </trkpt>
      <trkpt lat="42.98608" lon="0.54074">
        <ele>1271</ele>
        <time>2016-09-30T12:29:01Z</time>
      </trkpt>
      <trkpt lat="42.98613" lon="0.54063">
        <ele>1272</ele>
        <time>2016-09-30T12:29:11Z</time>
      </trkpt>
      <trkpt lat="42.98609" lon="0.54058">
        <ele>1272</ele>
        <time>2016-09-30T12:29:18Z</time>
      </trkpt>
      <trkpt lat="42.98606" lon="0.54057">
        <ele>1272</ele>
        <time>2016-09-30T12:32:01Z</time>
      </trkpt>
      <trkpt lat="42.98602" lon="0.54062">
        <ele>1273</ele>
        <time>2016-09-30T12:32:07Z</time>
      </trkpt>
      <trkpt lat="42.98597" lon="0.54064">
        <ele>1273</ele>
        <time>2016-09-30T12:32:13Z</time>
      </trkpt>
      <trkpt lat="42.98577" lon="0.54084">
        <ele>1275</ele>
        <time>2016-09-30T12:32:47Z</time>
      </trkpt>
      <trkpt lat="42.98566" lon="0.54097">
        <ele>1278</ele>
        <time>2016-09-30T12:33:07Z</time>
      </trkpt>
      <trkpt lat="42.98544" lon="0.5411">
        <ele>1283</ele>
        <time>2016-09-30T12:33:35Z</time>
      </trkpt>
      <trkpt lat="42.98539" lon="0.54109">
        <ele>1284</ele>
        <time>2016-09-30T12:33:40Z</time>
      </trkpt>
      <trkpt lat="42.98536" lon="0.54115">
        <ele>1286</ele>
        <time>2016-09-30T12:33:46Z</time>
      </trkpt>
      <trkpt lat="42.98533" lon="0.54119">
        <ele>1287</ele>
        <time>2016-09-30T12:33:52Z</time>
      </trkpt>
      <trkpt lat="42.98523" lon="0.54122">
        <ele>1288</ele>
        <time>2016-09-30T12:34:04Z</time>
      </trkpt>
      <trkpt lat="42.98519" lon="0.54124">
        <ele>1289</ele>
        <time>2016-09-30T12:34:08Z</time>
      </trkpt>
      <trkpt lat="42.98507" lon="0.54136">
        <ele>1290</ele>
        <time>2016-09-30T12:34:24Z</time>
      </trkpt>
      <trkpt lat="42.98505" lon="0.54131">
        <ele>1291</ele>
        <time>2016-09-30T12:34:37Z</time>
      </trkpt>
      <trkpt lat="42.98509" lon="0.54126">
        <ele>1292</ele>
        <time>2016-09-30T12:34:42Z</time>
      </trkpt>
      <trkpt lat="42.98523" lon="0.541">
        <ele>1298</ele>
        <time>2016-09-30T12:35:12Z</time>
      </trkpt>
      <trkpt lat="42.98532" lon="0.54084">
        <ele>1299</ele>
        <time>2016-09-30T12:35:28Z</time>
      </trkpt>
      <trkpt lat="42.98542" lon="0.54047">
        <ele>1304</ele>
        <time>2016-09-30T12:36:02Z</time>
      </trkpt>
      <trkpt lat="42.98545" lon="0.54033">
        <ele>1305</ele>
        <time>2016-09-30T12:36:13Z</time>
      </trkpt>
      <trkpt lat="42.98546" lon="0.54027">
        <ele>1305</ele>
        <time>2016-09-30T12:36:18Z</time>
      </trkpt>
      <trkpt lat="42.98556" lon="0.5399">
        <ele>1312</ele>
        <time>2016-09-30T12:36:53Z</time>
      </trkpt>
      <trkpt lat="42.98557" lon="0.53984">
        <ele>1312</ele>
        <time>2016-09-30T12:36:58Z</time>
      </trkpt>
      <trkpt lat="42.98559" lon="0.53978">
        <ele>1312</ele>
        <time>2016-09-30T12:37:02Z</time>
      </trkpt>
      <trkpt lat="42.98559" lon="0.53964">
        <ele>1314</ele>
        <time>2016-09-30T12:37:15Z</time>
      </trkpt>
      <trkpt lat="42.98562" lon="0.53958">
        <ele>1314</ele>
        <time>2016-09-30T12:37:20Z</time>
      </trkpt>
      <trkpt lat="42.98567" lon="0.53926">
        <ele>1318</ele>
        <time>2016-09-30T12:37:50Z</time>
      </trkpt>
      <trkpt lat="42.98581" lon="0.53893">
        <ele>1323</ele>
        <time>2016-09-30T12:38:21Z</time>
      </trkpt>
      <trkpt lat="42.9859" lon="0.53857">
        <ele>1328</ele>
        <time>2016-09-30T12:38:52Z</time>
      </trkpt>
      <trkpt lat="42.98604" lon="0.53824">
        <ele>1331</ele>
        <time>2016-09-30T12:39:23Z</time>
      </trkpt>
      <trkpt lat="42.98606" lon="0.53811">
        <ele>1333</ele>
        <time>2016-09-30T12:39:34Z</time>
      </trkpt>
      <trkpt lat="42.98611" lon="0.53774">
        <ele>1335</ele>
        <time>2016-09-30T12:40:04Z</time>
      </trkpt>
      <trkpt lat="42.98618" lon="0.53737">
        <ele>1340</ele>
        <time>2016-09-30T12:40:35Z</time>
      </trkpt>
      <trkpt lat="42.98623" lon="0.53721">
        <ele>1340</ele>
        <time>2016-09-30T12:41:23Z</time>
      </trkpt>
      <trkpt lat="42.98624" lon="0.53708">
        <ele>1343</ele>
        <time>2016-09-30T12:41:33Z</time>
      </trkpt>
      <trkpt lat="42.98626" lon="0.53695">
        <ele>1343</ele>
        <time>2016-09-30T12:41:42Z</time>
      </trkpt>
      <trkpt lat="42.98628" lon="0.53683">
        <ele>1345</ele>
        <time>2016-09-30T12:41:52Z</time>
      </trkpt>
      <trkpt lat="42.98631" lon="0.5367">
        <ele>1346</ele>
        <time>2016-09-30T12:42:03Z</time>
      </trkpt>
      <trkpt lat="42.98631" lon="0.53657">
        <ele>1349</ele>
        <time>2016-09-30T12:42:14Z</time>
      </trkpt>
      <trkpt lat="42.98632" lon="0.53651">
        <ele>1349</ele>
        <time>2016-09-30T12:42:24Z</time>
      </trkpt>
      <trkpt lat="42.9863" lon="0.53646">
        <ele>1348</ele>
        <time>2016-09-30T12:42:47Z</time>
      </trkpt>
      <trkpt lat="42.98629" lon="0.5364">
        <ele>1348</ele>
        <time>2016-09-30T12:42:52Z</time>
      </trkpt>
      <trkpt lat="42.98626" lon="0.53634">
        <ele>1348</ele>
        <time>2016-09-30T12:42:57Z</time>
      </trkpt>
      <trkpt lat="42.98621" lon="0.53615">
        <ele>1350</ele>
        <time>2016-09-30T12:43:15Z</time>
      </trkpt>
      <trkpt lat="42.98621" lon="0.53608">
        <ele>1352</ele>
        <time>2016-09-30T12:43:30Z</time>
      </trkpt>
      <trkpt lat="42.98621" lon="0.53596">
        <ele>1353</ele>
        <time>2016-09-30T12:43:42Z</time>
      </trkpt>
      <trkpt lat="42.98618" lon="0.53584">
        <ele>1353</ele>
        <time>2016-09-30T12:43:53Z</time>
      </trkpt>
      <trkpt lat="42.98609" lon="0.53587">
        <ele>1354</ele>
        <time>2016-09-30T12:44:07Z</time>
      </trkpt>
      <trkpt lat="42.98602" lon="0.53596">
        <ele>1355</ele>
        <time>2016-09-30T12:44:20Z</time>
      </trkpt>
      <trkpt lat="42.98596" lon="0.53606">
        <ele>1358</ele>
        <time>2016-09-30T12:44:34Z</time>
      </trkpt>
      <trkpt lat="42.9859" lon="0.53607">
        <ele>1359</ele>
        <time>2016-09-30T12:44:49Z</time>
      </trkpt>
      <trkpt lat="42.9858" lon="0.53613">
        <ele>1360</ele>
        <time>2016-09-30T12:45:05Z</time>
      </trkpt>
      <trkpt lat="42.98581" lon="0.53622">
        <ele>1362</ele>
        <time>2016-09-30T12:45:21Z</time>
      </trkpt>
      <trkpt lat="42.98578" lon="0.53634">
        <ele>1368</ele>
        <time>2016-09-30T12:45:38Z</time>
      </trkpt>
      <trkpt lat="42.98561" lon="0.53664">
        <ele>1375</ele>
        <time>2016-09-30T12:46:15Z</time>
      </trkpt>
      <trkpt lat="42.98554" lon="0.53673">
        <ele>1377</ele>
        <time>2016-09-30T12:46:25Z</time>
      </trkpt>
      <trkpt lat="42.98554" lon="0.53685">
        <ele>1377</ele>
        <time>2016-09-30T12:46:32Z</time>
      </trkpt>
      <trkpt lat="42.98555" lon="0.53699">
        <ele>1377</ele>
        <time>2016-09-30T12:46:39Z</time>
      </trkpt>
      <trkpt lat="42.98548" lon="0.53709">
        <ele>1377</ele>
        <time>2016-09-30T12:46:48Z</time>
      </trkpt>
      <trkpt lat="42.98542" lon="0.53722">
        <ele>1379</ele>
        <time>2016-09-30T12:47:03Z</time>
      </trkpt>
      <trkpt lat="42.98539" lon="0.53748">
        <ele>1382</ele>
        <time>2016-09-30T12:47:26Z</time>
      </trkpt>
      <trkpt lat="42.98527" lon="0.5375">
        <ele>1383</ele>
        <time>2016-09-30T12:47:51Z</time>
      </trkpt>
      <trkpt lat="42.98505" lon="0.53775">
        <ele>1389</ele>
        <time>2016-09-30T12:48:28Z</time>
      </trkpt>
      <trkpt lat="42.9849" lon="0.53806">
        <ele>1394</ele>
        <time>2016-09-30T12:49:02Z</time>
      </trkpt>
      <trkpt lat="42.98485" lon="0.53817">
        <ele>1397</ele>
        <time>2016-09-30T12:49:14Z</time>
      </trkpt>
      <trkpt lat="42.98478" lon="0.53827">
        <ele>1398</ele>
        <time>2016-09-30T12:49:24Z</time>
      </trkpt>
      <trkpt lat="42.98475" lon="0.53839">
        <ele>1400</ele>
        <time>2016-09-30T12:49:34Z</time>
      </trkpt>
      <trkpt lat="42.98452" lon="0.5386">
        <ele>1408</ele>
        <time>2016-09-30T12:50:16Z</time>
      </trkpt>
      <trkpt lat="42.98445" lon="0.53868">
        <ele>1410</ele>
        <time>2016-09-30T12:50:28Z</time>
      </trkpt>
      <trkpt lat="42.98438" lon="0.53878">
        <ele>1410</ele>
        <time>2016-09-30T12:50:38Z</time>
      </trkpt>
      <trkpt lat="42.9842" lon="0.53907">
        <ele>1416</ele>
        <time>2016-09-30T12:51:06Z</time>
      </trkpt>
      <trkpt lat="42.98401" lon="0.53938">
        <ele>1416</ele>
        <time>2016-09-30T12:51:44Z</time>
      </trkpt>
      <trkpt lat="42.98398" lon="0.5395">
        <ele>1417</ele>
        <time>2016-09-30T12:52:02Z</time>
      </trkpt>
      <trkpt lat="42.98389" lon="0.53954">
        <ele>1417</ele>
        <time>2016-09-30T12:52:14Z</time>
      </trkpt>
      <trkpt lat="42.98372" lon="0.53957">
        <ele>1423</ele>
        <time>2016-09-30T12:52:42Z</time>
      </trkpt>
      <trkpt lat="42.98371" lon="0.53964">
        <ele>1423</ele>
        <time>2016-09-30T12:52:53Z</time>
      </trkpt>
      <trkpt lat="42.98372" lon="0.5397">
        <ele>1424</ele>
        <time>2016-09-30T12:53:16Z</time>
      </trkpt>
      <trkpt lat="42.98366" lon="0.53976">
        <ele>1422</ele>
        <time>2016-09-30T12:54:04Z</time>
      </trkpt>
      <trkpt lat="42.98361" lon="0.53974">
        <ele>1422</ele>
        <time>2016-09-30T12:54:09Z</time>
      </trkpt>
      <trkpt lat="42.98333" lon="0.53974">
        <ele>1430</ele>
        <time>2016-09-30T12:54:44Z</time>
      </trkpt>
      <trkpt lat="42.98329" lon="0.53978">
        <ele>1430</ele>
        <time>2016-09-30T12:54:56Z</time>
      </trkpt>
      <trkpt lat="42.98319" lon="0.53979">
        <ele>1430</ele>
        <time>2016-09-30T12:55:08Z</time>
      </trkpt>
      <trkpt lat="42.98301" lon="0.53987">
        <ele>1431</ele>
        <time>2016-09-30T12:55:33Z</time>
      </trkpt>
      <trkpt lat="42.98293" lon="0.53992">
        <ele>1431</ele>
        <time>2016-09-30T12:55:43Z</time>
      </trkpt>
      <trkpt lat="42.98285" lon="0.53998">
        <ele>1432</ele>
        <time>2016-09-30T12:55:54Z</time>
      </trkpt>
      <trkpt lat="42.98276" lon="0.54">
        <ele>1432</ele>
        <time>2016-09-30T12:56:05Z</time>
      </trkpt>
      <trkpt lat="42.9825" lon="0.54018">
        <ele>1434</ele>
        <time>2016-09-30T12:56:30Z</time>
      </trkpt>
      <trkpt lat="42.98248" lon="0.54033">
        <ele>1436</ele>
        <time>2016-09-30T12:56:45Z</time>
      </trkpt>
      <trkpt lat="42.98239" lon="0.54039">
        <ele>1437</ele>
        <time>2016-09-30T12:56:58Z</time>
      </trkpt>
      <trkpt lat="42.9822" lon="0.54045">
        <ele>1439</ele>
        <time>2016-09-30T12:57:19Z</time>
      </trkpt>
      <trkpt lat="42.9821" lon="0.54043">
        <ele>1442</ele>
        <time>2016-09-30T12:57:32Z</time>
      </trkpt>
      <trkpt lat="42.98202" lon="0.54049">
        <ele>1444</ele>
        <time>2016-09-30T12:57:44Z</time>
      </trkpt>
      <trkpt lat="42.982" lon="0.54056">
        <ele>1445</ele>
        <time>2016-09-30T12:57:57Z</time>
      </trkpt>
      <trkpt lat="42.9819" lon="0.54055">
        <ele>1450</ele>
        <time>2016-09-30T12:58:54Z</time>
      </trkpt>
      <trkpt lat="42.98169" lon="0.54067">
        <ele>1457</ele>
        <time>2016-09-30T12:59:23Z</time>
      </trkpt>
      <trkpt lat="42.98164" lon="0.54077">
        <ele>1458</ele>
        <time>2016-09-30T12:59:33Z</time>
      </trkpt>
      <trkpt lat="42.98162" lon="0.54075">
        <ele>1460</ele>
        <time>2016-09-30T13:00:03Z</time>
      </trkpt>
      <trkpt lat="42.9816" lon="0.54082">
        <ele>1461</ele>
        <time>2016-09-30T13:01:11Z</time>
      </trkpt>
      <trkpt lat="42.98151" lon="0.54088">
        <ele>1464</ele>
        <time>2016-09-30T13:01:21Z</time>
      </trkpt>
      <trkpt lat="42.98142" lon="0.5409">
        <ele>1465</ele>
        <time>2016-09-30T13:01:33Z</time>
      </trkpt>
      <trkpt lat="42.98137" lon="0.54092">
        <ele>1468</ele>
        <time>2016-09-30T13:01:45Z</time>
      </trkpt>
      <trkpt lat="42.98127" lon="0.5409">
        <ele>1469</ele>
        <time>2016-09-30T13:02:03Z</time>
      </trkpt>
      <trkpt lat="42.98119" lon="0.54097">
        <ele>1470</ele>
        <time>2016-09-30T13:02:16Z</time>
      </trkpt>
      <trkpt lat="42.98112" lon="0.54097">
        <ele>1473</ele>
        <time>2016-09-30T13:02:32Z</time>
      </trkpt>
      <trkpt lat="42.98103" lon="0.54094">
        <ele>1474</ele>
        <time>2016-09-30T13:02:48Z</time>
      </trkpt>
      <trkpt lat="42.98099" lon="0.541">
        <ele>1477</ele>
        <time>2016-09-30T13:03:04Z</time>
      </trkpt>
      <trkpt lat="42.98091" lon="0.54104">
        <ele>1478</ele>
        <time>2016-09-30T13:03:22Z</time>
      </trkpt>
      <trkpt lat="42.98078" lon="0.541">
        <ele>1479</ele>
        <time>2016-09-30T13:03:43Z</time>
      </trkpt>
      <trkpt lat="42.98069" lon="0.541">
        <ele>1479</ele>
        <time>2016-09-30T13:03:49Z</time>
      </trkpt>
      <trkpt lat="42.9806" lon="0.54105">
        <ele>1480</ele>
        <time>2016-09-30T13:03:56Z</time>
      </trkpt>
      <trkpt lat="42.98051" lon="0.5411">
        <ele>1481</ele>
        <time>2016-09-30T13:04:07Z</time>
      </trkpt>
      <trkpt lat="42.98043" lon="0.54119">
        <ele>1481</ele>
        <time>2016-09-30T13:04:15Z</time>
      </trkpt>
      <trkpt lat="42.98038" lon="0.5413">
        <ele>1481</ele>
        <time>2016-09-30T13:04:29Z</time>
      </trkpt>
      <trkpt lat="42.9803" lon="0.54137">
        <ele>1482</ele>
        <time>2016-09-30T13:04:47Z</time>
      </trkpt>
      <trkpt lat="42.98025" lon="0.54135">
        <ele>1483</ele>
        <time>2016-09-30T13:04:59Z</time>
      </trkpt>
      <trkpt lat="42.98026" lon="0.54124">
        <ele>1488</ele>
        <time>2016-09-30T13:06:04Z</time>
      </trkpt>
      <trkpt lat="42.9803" lon="0.54115">
        <ele>1490</ele>
        <time>2016-09-30T13:06:22Z</time>
      </trkpt>
      <trkpt lat="42.98027" lon="0.54101">
        <ele>1493</ele>
        <time>2016-09-30T13:06:39Z</time>
      </trkpt>
      <trkpt lat="42.98034" lon="0.54092">
        <ele>1495</ele>
        <time>2016-09-30T13:06:52Z</time>
      </trkpt>
      <trkpt lat="42.98037" lon="0.54079">
        <ele>1498</ele>
        <time>2016-09-30T13:07:06Z</time>
      </trkpt>
      <trkpt lat="42.98052" lon="0.54061">
        <ele>1506</ele>
        <time>2016-09-30T13:07:45Z</time>
      </trkpt>
      <trkpt lat="42.9806" lon="0.54055">
        <ele>1507</ele>
        <time>2016-09-30T13:07:53Z</time>
      </trkpt>
      <trkpt lat="42.98075" lon="0.54016">
        <ele>1511</ele>
        <time>2016-09-30T13:08:28Z</time>
      </trkpt>
      <trkpt lat="42.98087" lon="0.53966">
        <ele>1517</ele>
        <time>2016-09-30T13:09:02Z</time>
      </trkpt>
      <trkpt lat="42.98089" lon="0.5396">
        <ele>1517</ele>
        <time>2016-09-30T13:09:08Z</time>
      </trkpt>
      <trkpt lat="42.98091" lon="0.53947">
        <ele>1518</ele>
        <time>2016-09-30T13:09:18Z</time>
      </trkpt>
      <trkpt lat="42.98101" lon="0.53931">
        <ele>1521</ele>
        <time>2016-09-30T13:09:48Z</time>
      </trkpt>
      <trkpt lat="42.98105" lon="0.53927">
        <ele>1521</ele>
        <time>2016-09-30T13:09:53Z</time>
      </trkpt>
      <trkpt lat="42.98117" lon="0.53907">
        <ele>1522</ele>
        <time>2016-09-30T13:10:13Z</time>
      </trkpt>
      <trkpt lat="42.98125" lon="0.53896">
        <ele>1524</ele>
        <time>2016-09-30T13:11:13Z</time>
      </trkpt>
      <trkpt lat="42.98128" lon="0.53892">
        <ele>1524</ele>
        <time>2016-09-30T13:11:18Z</time>
      </trkpt>
      <trkpt lat="42.98142" lon="0.53864">
        <ele>1528</ele>
        <time>2016-09-30T13:11:46Z</time>
      </trkpt>
      <trkpt lat="42.98144" lon="0.53858">
        <ele>1528</ele>
        <time>2016-09-30T13:11:52Z</time>
      </trkpt>
      <trkpt lat="42.98145" lon="0.53852">
        <ele>1529</ele>
        <time>2016-09-30T13:11:58Z</time>
      </trkpt>
      <trkpt lat="42.9815" lon="0.5384">
        <ele>1529</ele>
        <time>2016-09-30T13:12:10Z</time>
      </trkpt>
      <trkpt lat="42.98152" lon="0.5383">
        <ele>1531</ele>
        <time>2016-09-30T13:12:32Z</time>
      </trkpt>
      <trkpt lat="42.98159" lon="0.53804">
        <ele>1534</ele>
        <time>2016-09-30T13:13:16Z</time>
      </trkpt>
      <trkpt lat="42.98159" lon="0.53798">
        <ele>1534</ele>
        <time>2016-09-30T13:13:21Z</time>
      </trkpt>
      <trkpt lat="42.98162" lon="0.53786">
        <ele>1536</ele>
        <time>2016-09-30T13:13:43Z</time>
      </trkpt>
      <trkpt lat="42.98162" lon="0.53783">
        <ele>1541</ele>
        <time>2016-09-30T13:15:12Z</time>
      </trkpt>
    </trkseg>
  </trk>
</gpx>